createdAt,value
2023-01-18T00:01:16.722Z,90.04
2023-01-18T00:03:43.643Z,89.92
2023-01-18T00:06:11.351Z,89.83
2023-01-18T00:08:40.708Z,89.68
2023-01-18T00:11:10.690Z,89.77
2023-01-18T00:13:38.568Z,89.55
2023-01-18T00:16:08.283Z,89.90
2023-01-18T00:18:35.148Z,89.69
2023-01-18T00:21:02.220Z,89.55
2023-01-18T00:23:29.428Z,89.20
2023-01-18T00:26:01.538Z,89.36
2023-01-18T00:28:29.577Z,89.20
2023-01-18T00:31:15.727Z,89.35
2023-01-18T00:33:53.680Z,89.33
2023-01-18T00:36:27.596Z,89.10
2023-01-18T00:38:54.794Z,89.93
2023-01-18T00:41:23.483Z,89.62
2023-01-18T00:43:53.215Z,89.23
2023-01-18T00:46:24.647Z,89.63
2023-01-18T00:48:52.936Z,89.74
2023-01-18T00:51:23.675Z,89.59
2023-01-18T00:53:51.671Z,89.67
2023-01-18T00:56:21.559Z,89.45
2023-01-18T00:58:50.408Z,88.88
2023-01-18T01:05:01.282Z,89.27
2023-01-18T01:07:28.087Z,88.95
2023-01-18T01:09:54.937Z,89.20
2023-01-18T01:12:21.737Z,89.39
2023-01-18T01:14:50.041Z,89.04
2023-01-18T01:17:17.956Z,89.38
2023-01-18T01:19:44.817Z,88.98
2023-01-18T01:22:11.660Z,88.68
2023-01-18T01:24:38.545Z,88.78
2023-01-18T01:27:05.647Z,88.76
2023-01-18T01:29:32.849Z,89.29
2023-01-18T01:32:01.104Z,89.22
2023-01-18T01:34:28.077Z,89.11
2023-01-18T01:36:55.466Z,88.88
2023-01-18T01:39:22.646Z,89.30
2023-01-18T01:41:50.083Z,88.97
2023-01-18T01:44:54.094Z,88.64
2023-01-18T01:47:34.579Z,88.72
2023-01-18T01:50:09.662Z,89.41
2023-01-18T01:52:41.629Z,89.21
2023-01-18T01:55:17.845Z,89.39
2023-01-18T01:57:55.017Z,89.25
2023-01-18T02:00:22.982Z,89.30
2023-01-18T02:02:57.225Z,89.64
2023-01-18T02:05:25.685Z,89.15
2023-01-18T02:07:53.951Z,89.02
2023-01-18T02:10:21.128Z,89.58
2023-01-18T02:12:51.957Z,89.61
2023-01-18T02:15:22.619Z,89.76
2023-01-18T02:18:24.274Z,89.70
2023-01-18T02:21:12.624Z,89.48
2023-01-18T02:24:59.117Z,89.67
2023-01-18T02:27:34.844Z,89.40
2023-01-18T02:30:26.571Z,89.59
2023-01-18T02:33:08.778Z,89.44
2023-01-18T02:35:51.325Z,89.84
2023-01-18T02:38:26.356Z,89.57
2023-01-18T02:41:32.550Z,89.70
2023-01-18T02:44:28.179Z,89.84
2023-01-18T02:47:01.019Z,89.34
2023-01-18T02:49:27.795Z,89.68
2023-01-18T02:52:01.077Z,89.72
2023-01-18T02:54:30.969Z,89.89
2023-01-18T02:57:05.504Z,90.29
2023-01-18T02:59:39.289Z,90.00
2023-01-18T03:02:15.019Z,89.79
2023-01-18T03:04:44.741Z,89.58
2023-01-18T03:07:17.505Z,89.73
2023-01-18T03:09:46.313Z,90.09
2023-01-18T03:12:26.650Z,89.61
2023-01-18T03:15:05.527Z,90.08
2023-01-18T03:17:42.438Z,90.28
2023-01-18T03:20:13.142Z,90.58
2023-01-18T03:22:59.661Z,90.42
2023-01-18T03:25:33.113Z,90.63
2023-01-18T03:28:06.363Z,90.20
2023-01-18T03:30:36.103Z,90.17
2023-01-18T03:33:07.973Z,90.11
2023-01-18T03:35:38.023Z,90.06
2023-01-18T03:38:05.598Z,89.44
2023-01-18T03:40:32.621Z,89.69
2023-01-18T03:43:08.757Z,89.78
2023-01-18T03:45:43.171Z,89.87
2023-01-18T03:48:12.494Z,89.76
2023-01-18T03:50:50.234Z,89.44
2023-01-18T03:53:32.829Z,89.45
2023-01-18T03:56:08.239Z,89.44
2023-01-18T03:58:36.791Z,89.79
2023-01-18T04:01:05.054Z,90.16
2023-01-18T04:03:34.369Z,89.89
2023-01-18T04:06:09.790Z,89.78
2023-01-18T04:08:36.778Z,90.06
2023-01-18T04:11:03.901Z,90.13
2023-01-18T04:13:30.687Z,89.88
2023-01-18T04:15:57.593Z,90.64
2023-01-18T04:18:24.451Z,90.37
2023-01-18T04:20:54.119Z,90.50
2023-01-18T04:23:21.149Z,90.57
2023-01-18T04:25:49.459Z,90.61
2023-01-18T04:28:16.342Z,90.23
2023-01-18T04:30:43.289Z,90.53
2023-01-18T04:33:10.524Z,90.77
2023-01-18T04:35:37.313Z,90.71
2023-01-18T04:38:05.589Z,90.75
2023-01-18T04:40:32.584Z,90.72
2023-01-18T04:42:59.740Z,90.74
2023-01-18T04:45:26.780Z,91.36
2023-01-18T04:47:53.680Z,91.25
2023-01-18T04:50:20.441Z,91.31
2023-01-18T04:52:47.555Z,91.27
2023-01-18T04:55:19.256Z,91.18
2023-01-18T04:57:55.201Z,90.96
2023-01-18T05:00:22.902Z,91.24
2023-01-18T05:02:50.353Z,90.85
2023-01-18T05:05:17.829Z,91.05
2023-01-18T05:07:45.091Z,91.00
2023-01-18T05:10:12.657Z,91.29
2023-01-18T05:13:11.239Z,90.94
2023-01-18T05:15:38.673Z,90.87
2023-01-18T05:18:05.905Z,90.60
2023-01-18T05:20:32.873Z,90.39
2023-01-18T05:22:59.991Z,89.80
2023-01-18T05:25:27.167Z,89.86
2023-01-18T05:27:55.395Z,89.65
2023-01-18T05:30:22.143Z,89.89
2023-01-18T05:32:49.087Z,89.45
2023-01-18T05:35:16.216Z,89.01
2023-01-18T05:37:43.040Z,89.38
2023-01-18T05:40:11.580Z,89.32
2023-01-18T05:42:38.511Z,89.30
2023-01-18T05:45:08.835Z,89.31
2023-01-18T05:47:35.896Z,89.12
2023-01-18T05:50:04.063Z,89.39
2023-01-18T05:52:34.589Z,88.98
2023-01-18T05:55:01.495Z,88.63
2023-01-18T05:57:28.392Z,88.73
2023-01-18T05:59:55.455Z,89.03
2023-01-18T06:02:24.460Z,88.73
2023-01-18T06:04:51.263Z,88.70
2023-01-18T06:07:18.032Z,88.84
2023-01-18T06:09:44.978Z,88.39
2023-01-18T06:12:11.859Z,89.08
2023-01-18T06:14:38.844Z,89.04
2023-01-18T06:17:05.936Z,88.66
2023-01-18T06:19:34.147Z,89.33
2023-01-18T06:22:01.310Z,89.63
2023-01-18T06:24:28.179Z,89.97
2023-01-18T06:26:55.112Z,89.93
2023-01-18T06:29:22.031Z,90.29
2023-01-18T06:31:48.884Z,90.03
2023-01-18T06:34:15.729Z,90.33
2023-01-18T06:36:44.130Z,90.58
2023-01-18T06:39:11.292Z,90.86
2023-01-18T06:41:38.226Z,90.57
2023-01-18T06:44:06.282Z,90.82
2023-01-18T06:46:33.869Z,91.04
2023-01-18T06:49:00.859Z,91.16
2023-01-18T06:51:28.364Z,91.37
2023-01-18T06:53:56.863Z,91.51
2023-01-18T06:56:23.634Z,91.60
2023-01-18T06:58:50.872Z,91.42
2023-01-18T07:01:18.078Z,91.44
2023-01-18T07:03:45.094Z,91.40
2023-01-18T07:06:12.661Z,91.23
2023-01-18T07:08:39.702Z,90.89
2023-01-18T07:11:10.891Z,90.95
2023-01-18T07:16:26.111Z,90.75
2023-01-18T07:18:53.245Z,90.81
2023-01-18T07:21:20.301Z,90.32
2023-01-18T07:23:49.334Z,90.81
2023-01-18T07:26:22.638Z,90.75
2023-01-18T07:29:00.148Z,90.46
2023-01-18T07:31:48.230Z,90.48
2023-01-18T07:34:35.787Z,89.87
2023-01-18T07:37:08.762Z,90.41
2023-01-18T07:39:39.005Z,90.97
2023-01-18T07:42:07.237Z,91.32
2023-01-18T07:44:34.096Z,90.29
2023-01-18T07:47:01.142Z,91.03
2023-01-18T07:49:28.109Z,89.89
2023-01-18T07:51:55.311Z,90.72
2023-01-18T07:54:22.179Z,89.36
2023-01-18T07:56:49.184Z,90.27
2023-01-18T07:59:17.507Z,88.28
2023-01-18T08:01:44.826Z,88.63
2023-01-18T08:04:11.966Z,88.57
2023-01-18T08:06:38.834Z,90.72
2023-01-18T08:09:05.660Z,90.68
2023-01-18T08:11:34.357Z,87.67
2023-01-18T08:14:03.332Z,87.43
2023-01-18T08:16:31.605Z,85.02
2023-01-18T08:18:58.516Z,84.34
2023-01-18T08:21:28.477Z,85.01
2023-01-18T08:23:55.379Z,85.54
2023-01-18T08:26:23.641Z,85.61
2023-01-18T08:28:50.695Z,86.31
2023-01-18T08:31:21.669Z,86.07
2023-01-18T08:33:49.892Z,86.88
2023-01-18T08:36:20.491Z,86.71
2023-01-18T08:38:48.998Z,86.56
2023-01-18T08:41:16.014Z,86.76
2023-01-18T08:43:42.826Z,86.94
2023-01-18T08:46:09.853Z,86.59
2023-01-18T08:56:25.731Z,86.43
2023-01-18T08:58:54.295Z,86.25
2023-01-18T09:01:21.690Z,86.77
2023-01-18T09:03:51.720Z,86.59
2023-01-18T09:06:21.311Z,85.97
2023-01-18T09:08:49.710Z,85.70
2023-01-18T09:11:18.285Z,86.11
2023-01-18T09:13:59.830Z,86.11
2023-01-18T09:16:31.461Z,86.34
2023-01-18T09:18:59.647Z,86.57
2023-01-18T09:21:30.056Z,86.20
2023-01-18T09:23:57.865Z,86.23
2023-01-18T09:26:29.230Z,85.77
2023-01-18T09:28:58.709Z,86.17
2023-01-18T09:31:29.926Z,85.98
2023-01-18T09:34:17.419Z,86.14
2023-01-18T09:36:50.133Z,86.79
2023-01-18T09:39:17.834Z,86.83
2023-01-18T09:41:52.664Z,86.76
2023-01-18T09:44:28.522Z,86.33
2023-01-18T09:47:03.098Z,86.60
2023-01-18T09:49:37.755Z,85.59
2023-01-18T09:52:34.314Z,86.02
2023-01-18T09:55:18.239Z,85.24
2023-01-18T09:58:04.828Z,85.29
2023-01-18T10:00:40.058Z,86.01
2023-01-18T10:03:15.237Z,86.42
2023-01-18T10:06:08.695Z,85.77
2023-01-18T10:08:50.090Z,85.60
2023-01-18T10:11:32.965Z,85.40
2023-01-18T10:14:18.094Z,84.96
2023-01-18T10:16:58.529Z,83.81
2023-01-18T10:19:29.530Z,83.78
2023-01-18T10:22:10.805Z,83.21
2023-01-18T10:24:51.579Z,82.64
2023-01-18T10:27:49.139Z,81.67
2023-01-18T10:30:33.365Z,82.02
2023-01-18T10:33:12.919Z,81.60
2023-01-18T10:36:22.170Z,81.40
2023-01-18T10:48:42.613Z,77.16
2023-01-18T10:55:58.510Z,76.19
2023-01-18T10:59:37.022Z,75.74
2023-01-18T11:06:05.351Z,77.40
2023-01-18T11:08:35.334Z,77.51
2023-01-18T11:11:05.024Z,78.11
2023-01-18T11:13:41.394Z,76.03
2023-01-18T11:16:16.592Z,74.08
2023-01-18T11:19:03.045Z,72.53
2023-01-18T11:21:45.648Z,71.51
2023-01-18T11:24:17.536Z,70.31
2023-01-18T11:26:56.662Z,71.63
2023-01-18T11:32:54.494Z,72.00
2023-01-18T11:35:35.170Z,71.98
2023-01-18T11:38:27.508Z,70.86
2023-01-18T11:41:06.015Z,70.92
2023-01-18T11:43:37.230Z,72.07
2023-01-18T11:46:25.097Z,72.24
2023-01-18T11:49:01.028Z,74.06
2023-01-18T11:51:38.217Z,73.79
2023-01-18T11:54:24.584Z,74.98
2023-01-18T11:56:54.608Z,72.22
2023-01-18T11:59:28.755Z,68.62
2023-01-18T12:02:50.573Z,62.64
2023-01-18T12:05:47.150Z,59.84
2023-01-18T12:08:55.937Z,63.01
2023-01-18T12:11:46.365Z,65.93
2023-01-18T12:14:39.650Z,67.85
2023-01-18T12:17:28.937Z,68.84
2023-01-18T12:20:29.259Z,69.22
2023-01-18T12:23:25.651Z,70.17
2023-01-18T12:26:36.039Z,71.39
2023-01-18T12:29:38.552Z,72.27
2023-01-18T12:32:30.138Z,72.27
2023-01-18T12:35:27.593Z,73.14
2023-01-18T12:38:13.662Z,73.54
2023-01-18T12:41:05.364Z,74.07
2023-01-18T12:43:53.301Z,74.81
2023-01-18T12:46:31.626Z,74.33
2023-01-18T12:49:08.050Z,75.28
2023-01-18T12:51:41.542Z,75.97
2023-01-18T12:54:25.650Z,75.65
2023-01-18T12:56:56.951Z,76.41
2023-01-18T12:59:33.379Z,75.97
2023-01-18T13:02:21.327Z,76.37
2023-01-18T13:04:55.261Z,76.58
2023-01-18T13:07:32.109Z,76.25
2023-01-18T13:10:01.139Z,75.74
2023-01-18T13:12:29.444Z,75.58
2023-01-18T13:15:08.301Z,76.24
2023-01-18T13:17:46.094Z,76.89
2023-01-18T13:20:19.400Z,76.28
2023-01-18T13:23:07.915Z,75.77
2023-01-18T13:25:50.971Z,76.18
2023-01-18T13:28:21.880Z,77.38
2023-01-18T13:30:55.649Z,74.83
2023-01-18T13:33:29.753Z,75.65
2023-01-18T13:36:07.562Z,76.28
2023-01-18T13:38:41.860Z,74.96
2023-01-18T13:41:12.933Z,75.24
2023-01-18T13:44:00.836Z,75.54
2023-01-18T13:46:31.198Z,75.42
2023-01-18T13:49:00.264Z,74.76
2023-01-18T13:51:53.434Z,74.93
2023-01-18T13:55:01.329Z,74.94
2023-01-18T13:57:34.532Z,74.94
2023-01-18T14:00:05.711Z,75.05
2023-01-18T14:02:38.518Z,75.14
2023-01-18T14:05:18.496Z,75.69
2023-01-18T14:07:49.127Z,75.96
2023-01-18T14:10:28.316Z,75.75
2023-01-18T14:12:58.778Z,75.76
2023-01-18T14:15:49.056Z,75.66
2023-01-18T14:18:22.970Z,75.81
2023-01-18T14:21:05.112Z,76.31
2023-01-18T14:24:26.378Z,75.98
2023-01-18T14:26:58.224Z,76.31
2023-01-18T14:29:36.645Z,75.93
2023-01-18T14:32:10.699Z,76.38
2023-01-18T14:34:41.198Z,76.46
2023-01-18T14:37:30.172Z,76.77
2023-01-18T14:40:13.530Z,76.24
2023-01-18T14:42:49.293Z,76.24
2023-01-18T14:45:25.305Z,76.21
2023-01-18T14:47:52.394Z,75.30
2023-01-18T14:50:24.042Z,75.56
2023-01-18T14:52:53.810Z,75.55
2023-01-18T14:55:26.919Z,75.52
2023-01-18T14:58:03.657Z,75.93
2023-01-18T15:00:48.588Z,75.17
2023-01-18T15:03:24.077Z,75.10
2023-01-18T15:06:07.891Z,75.32
2023-01-18T15:08:35.527Z,75.55
2023-01-18T15:11:04.508Z,74.90
2023-01-18T15:13:33.910Z,75.35
2023-01-18T15:16:01.487Z,74.78
2023-01-18T15:18:30.669Z,74.62
2023-01-18T15:21:04.025Z,74.59
2023-01-18T15:23:37.184Z,74.81
2023-01-18T15:26:04.453Z,74.42
2023-01-18T15:28:33.580Z,73.84
2023-01-18T15:31:13.245Z,74.64
2023-01-18T15:33:41.697Z,75.00
2023-01-18T15:36:10.862Z,74.39
2023-01-18T15:38:39.029Z,73.89
2023-01-18T15:41:11.749Z,73.77
2023-01-18T15:43:43.001Z,74.15
2023-01-18T15:46:14.569Z,75.03
2023-01-18T15:48:50.664Z,74.86
2023-01-18T15:51:19.844Z,74.58
2023-01-18T15:53:50.938Z,74.20
2023-01-18T15:56:23.847Z,74.58
2023-01-18T15:58:55.091Z,75.87
2023-01-18T16:01:25.253Z,77.14
2023-01-18T16:03:59.660Z,78.34
2023-01-18T16:06:33.887Z,79.06
2023-01-18T16:09:19.877Z,79.15
2023-01-18T16:11:50.178Z,77.64
2023-01-18T16:14:32.813Z,79.21
2023-01-18T16:17:06.523Z,78.77
2023-01-18T16:19:40.396Z,79.06
2023-01-18T16:22:24.025Z,78.63
2023-01-18T16:24:56.295Z,77.46
2023-01-18T16:27:26.653Z,78.16
2023-01-18T16:29:56.980Z,77.64
2023-01-18T16:32:32.995Z,76.33
2023-01-18T16:35:02.914Z,76.71
2023-01-18T16:37:31.204Z,75.48
2023-01-18T16:39:58.173Z,74.60
2023-01-18T16:42:36.966Z,73.81
2023-01-18T16:45:13.395Z,73.42
2023-01-18T16:47:40.171Z,73.04
2023-01-18T16:50:14.529Z,73.43
2023-01-18T16:52:42.800Z,73.29
2023-01-18T16:55:12.345Z,73.96
2023-01-18T16:57:39.534Z,74.39
2023-01-18T17:00:17.461Z,74.93
2023-01-18T17:02:44.759Z,76.01
2023-01-18T17:05:12.875Z,75.92
2023-01-18T17:07:42.030Z,76.75
2023-01-18T17:10:21.214Z,76.86
2023-01-18T17:12:48.188Z,77.38
2023-01-18T17:15:15.451Z,77.61
2023-01-18T17:17:42.232Z,78.26
2023-01-18T17:20:19.825Z,78.72
2023-01-18T17:22:48.922Z,79.05
2023-01-18T17:25:19.588Z,79.97
2023-01-18T17:27:47.263Z,79.99
2023-01-18T17:30:19.294Z,80.83
2023-01-18T17:32:46.839Z,81.27
2023-01-18T17:35:16.720Z,81.80
2023-01-18T17:37:43.668Z,82.17
2023-01-18T17:40:22.508Z,82.85
2023-01-18T17:42:52.029Z,82.62
2023-01-18T17:45:18.991Z,82.72
2023-01-18T17:47:51.402Z,82.85
2023-01-18T17:50:40.331Z,83.37
2023-01-18T17:56:48.020Z,83.54
2023-01-18T17:59:16.565Z,84.60
2023-01-18T18:01:54.276Z,85.25
2023-01-18T18:04:32.522Z,85.03
2023-01-18T18:06:59.389Z,85.20
2023-01-18T18:09:26.572Z,85.05
2023-01-18T18:12:00.308Z,84.91
2023-01-18T18:14:27.674Z,86.04
2023-01-18T18:16:54.625Z,86.71
2023-01-18T18:27:37.392Z,86.35
2023-01-18T18:30:12.187Z,86.50
2023-01-18T18:33:33.960Z,87.00
2023-01-18T18:36:11.131Z,87.13
2023-01-18T18:38:38.911Z,86.66
2023-01-18T18:41:06.987Z,87.13
2023-01-18T18:43:35.932Z,86.68
2023-01-18T18:46:02.877Z,86.18
2023-01-18T18:48:56.625Z,85.70
2023-01-18T18:51:27.349Z,85.61
2023-01-18T18:53:54.169Z,86.04
2023-01-18T18:56:21.362Z,86.09
2023-01-18T18:58:50.813Z,86.15
2023-01-18T19:01:22.420Z,85.86
2023-01-18T19:04:01.623Z,85.65
2023-01-18T19:06:28.785Z,85.68
2023-01-18T19:08:57.693Z,85.54
2023-01-18T19:12:17.250Z,85.82
2023-01-18T19:14:50.442Z,85.81
2023-01-18T19:17:30.371Z,85.85
2023-01-18T19:19:59.147Z,85.92
2023-01-18T19:22:26.293Z,86.30
2023-01-18T19:24:53.048Z,85.94
2023-01-18T19:27:20.043Z,85.77
2023-01-18T19:29:48.536Z,86.70
2023-01-18T19:32:15.530Z,86.89
2023-01-18T19:34:42.300Z,87.30
2023-01-18T19:37:09.304Z,86.96
2023-01-18T19:40:26.532Z,88.44
2023-01-18T19:42:56.587Z,87.97
2023-01-18T19:45:28.808Z,87.96
2023-01-18T19:47:58.626Z,87.66
2023-01-18T19:50:55.234Z,87.38
2023-01-18T19:53:22.389Z,86.87
2023-01-18T19:55:56.921Z,86.63
2023-01-18T19:58:27.175Z,86.87
2023-01-18T20:00:55.761Z,86.33
2023-01-18T20:03:22.736Z,86.59
2023-01-18T20:05:49.606Z,86.88
2023-01-18T20:08:16.383Z,87.69
2023-01-18T20:10:43.407Z,87.15
2023-01-18T20:13:10.336Z,87.94
2023-01-18T20:19:33.709Z,90.04
2023-01-18T20:22:10.352Z,90.30
2023-01-18T20:29:33.384Z,90.13
2023-01-18T20:32:14.203Z,89.52
2023-01-18T20:34:44.662Z,89.13
2023-01-18T20:37:12.329Z,89.16
2023-01-18T20:39:39.850Z,89.27
2023-01-18T20:42:07.101Z,89.14
2023-01-18T20:44:34.062Z,88.30
2023-01-18T20:47:01.710Z,87.65
2023-01-18T20:49:43.998Z,86.13
2023-01-18T20:52:12.703Z,86.10
2023-01-18T20:54:39.510Z,86.66
2023-01-18T20:57:06.910Z,87.11
2023-01-18T21:03:37.846Z,86.65
2023-01-18T21:06:05.228Z,86.32
2023-01-18T21:08:33.698Z,86.13
2023-01-18T21:11:03.362Z,85.18
2023-01-18T21:13:31.603Z,85.20
2023-01-18T21:15:59.789Z,84.65
2023-01-18T21:18:27.409Z,84.21
2023-01-18T21:20:56.692Z,83.75
2023-01-18T21:23:23.903Z,84.13
2023-01-18T21:25:54.715Z,84.85
2023-01-18T21:28:22.895Z,85.29
2023-01-18T21:30:56.731Z,85.50
2023-01-18T21:33:25.995Z,84.84
2023-01-18T21:35:54.312Z,84.99
2023-01-18T21:38:27.245Z,85.60
2023-01-18T21:41:00.516Z,85.22
2023-01-18T21:43:28.258Z,85.84
2023-01-18T21:45:57.773Z,85.73
2023-01-18T21:48:27.217Z,85.40
2023-01-18T21:50:54.288Z,86.17
2023-01-18T21:53:21.255Z,86.35
2023-01-18T21:55:48.500Z,86.50
2023-01-18T21:58:16.604Z,86.95
2023-01-18T22:00:43.486Z,86.79
2023-01-18T22:03:10.336Z,86.68
2023-01-18T22:05:38.745Z,86.49
2023-01-18T22:08:08.844Z,86.16
2023-01-18T22:10:35.643Z,86.77
2023-01-18T22:13:02.451Z,86.24
2023-01-18T22:15:30.587Z,85.85
2023-01-18T22:17:58.454Z,85.18
2023-01-18T22:20:25.475Z,84.16
2023-01-18T22:22:52.247Z,84.71
2023-01-18T22:25:19.050Z,84.36
2023-01-18T22:27:48.843Z,82.86
2023-01-18T22:30:16.288Z,83.87
2023-01-18T22:32:47.076Z,84.58
2023-01-18T22:35:14.051Z,85.18
2023-01-18T22:37:40.882Z,85.84
2023-01-18T22:40:11.612Z,85.92
2023-01-18T22:42:40.892Z,85.70
2023-01-18T22:45:08.570Z,86.35
2023-01-18T22:47:35.652Z,86.46
2023-01-18T22:50:04.944Z,86.63
2023-01-18T22:52:31.909Z,86.81
2023-01-18T22:54:59.071Z,87.62
2023-01-18T22:57:25.924Z,87.58
2023-01-18T22:59:52.917Z,87.00
2023-01-18T23:02:19.841Z,86.95
2023-01-18T23:04:46.734Z,88.09
2023-01-18T23:07:18.019Z,87.99
2023-01-18T23:09:44.881Z,87.27
2023-01-18T23:12:11.816Z,87.33
2023-01-18T23:14:38.855Z,87.04
2023-01-18T23:17:06.023Z,87.07
2023-01-18T23:19:32.891Z,87.27
2023-01-18T23:22:00.148Z,87.24
2023-01-18T23:24:28.396Z,85.90
2023-01-18T23:26:55.472Z,85.65
2023-01-18T23:29:22.754Z,84.10
2023-01-18T23:31:49.586Z,85.94
2023-01-18T23:34:16.671Z,86.96
2023-01-18T23:36:43.429Z,86.53
2023-01-18T23:39:10.271Z,87.66
2023-01-18T23:41:39.862Z,87.99
2023-01-18T23:44:09.423Z,88.21
2023-01-18T23:46:41.789Z,87.69
2023-01-18T23:50:00.772Z,87.85
2023-01-18T23:53:07.779Z,87.70
